createdAt,value
2023-02-19T00:01:53.161Z,11.72
2023-02-19T00:04:23.765Z,11.70
2023-02-19T00:06:52.227Z,11.77
2023-02-19T00:09:21.769Z,11.73
2023-02-19T00:11:51.364Z,11.73
2023-02-19T00:14:21.247Z,11.60
2023-02-19T00:16:50.504Z,11.66
2023-02-19T00:19:20.442Z,11.66
2023-02-19T00:21:48.944Z,11.56
2023-02-19T00:24:17.217Z,11.45
2023-02-19T00:26:46.722Z,11.43
2023-02-19T00:29:18.091Z,11.45
2023-02-19T00:31:46.894Z,11.32
2023-02-19T00:34:15.796Z,11.19
2023-02-19T00:36:44.520Z,11.16
2023-02-19T00:39:18.753Z,11.19
2023-02-19T00:41:47.668Z,11.20
2023-02-19T00:44:17.836Z,11.08
2023-02-19T00:46:47.522Z,11.02
2023-02-19T00:49:19.159Z,10.93
2023-02-19T00:51:47.667Z,10.88
2023-02-19T00:54:16.051Z,10.74
2023-02-19T00:56:44.609Z,10.66
2023-02-19T00:59:12.889Z,10.68
2023-02-19T01:01:42.788Z,10.71
2023-02-19T01:04:10.816Z,10.52
2023-02-19T01:06:38.854Z,10.48
2023-02-19T01:09:07.239Z,10.41
2023-02-19T01:11:36.075Z,10.26
2023-02-19T01:14:05.136Z,10.05
2023-02-19T01:16:33.554Z,9.91
2023-02-19T01:19:03.799Z,9.93
2023-02-19T01:21:32.563Z,9.80
2023-02-19T01:24:01.255Z,9.68
2023-02-19T01:26:31.359Z,9.55
2023-02-19T01:28:59.899Z,9.53
2023-02-19T01:31:28.987Z,9.46
2023-02-19T01:33:58.994Z,9.41
2023-02-19T01:36:31.165Z,9.48
2023-02-19T01:39:03.860Z,9.59
2023-02-19T01:41:36.418Z,9.66
2023-02-19T01:44:08.078Z,9.52
2023-02-19T01:46:37.485Z,9.47
2023-02-19T01:49:09.762Z,9.40
2023-02-19T01:51:42.814Z,9.36
2023-02-19T01:54:13.911Z,9.30
2023-02-19T01:56:43.973Z,9.22
2023-02-19T01:59:12.885Z,9.18
2023-02-19T02:01:42.455Z,9.14
2023-02-19T02:04:13.149Z,9.07
2023-02-19T02:06:49.354Z,9.06
2023-02-19T02:09:35.482Z,9.08
2023-02-19T02:12:03.645Z,9.21
2023-02-19T02:14:35.393Z,9.35
2023-02-19T02:17:15.347Z,9.28
2023-02-19T02:20:03.799Z,9.30
2023-02-19T02:22:38.658Z,9.29
2023-02-19T02:25:37.565Z,9.36
2023-02-19T02:28:18.541Z,9.41
2023-02-19T02:30:50.475Z,9.43
2023-02-19T02:33:32.895Z,9.52
2023-02-19T02:36:07.551Z,9.53
2023-02-19T02:38:40.401Z,9.69
2023-02-19T02:41:09.739Z,9.60
2023-02-19T02:43:38.024Z,9.56
2023-02-19T02:46:07.864Z,9.54
2023-02-19T02:48:40.680Z,9.54
2023-02-19T02:51:15.669Z,9.58
2023-02-19T02:54:06.888Z,9.61
2023-02-19T02:56:36.124Z,9.65
2023-02-19T02:59:07.973Z,9.60
2023-02-19T03:02:00.504Z,9.50
2023-02-19T03:04:34.505Z,9.38
2023-02-19T03:07:07.047Z,9.26
2023-02-19T03:09:40.724Z,9.26
2023-02-19T03:12:32.109Z,9.28
2023-02-19T03:15:23.812Z,9.21
2023-02-19T03:18:15.302Z,9.34
2023-02-19T03:20:48.946Z,9.24
2023-02-19T03:23:20.931Z,9.09
2023-02-19T03:26:06.470Z,9.17
2023-02-19T03:29:02.570Z,9.09
2023-02-19T03:31:33.933Z,9.08
2023-02-19T03:34:09.738Z,9.14
2023-02-19T03:36:44.968Z,9.30
2023-02-19T03:39:15.855Z,9.27
2023-02-19T03:41:53.187Z,9.25
2023-02-19T03:44:26.642Z,9.40
2023-02-19T03:47:03.672Z,9.47
2023-02-19T03:49:42.873Z,9.55
2023-02-19T03:52:17.715Z,9.67
2023-02-19T03:54:53.428Z,9.64
2023-02-19T03:57:26.242Z,9.73
2023-02-19T04:00:00.550Z,9.80
2023-02-19T04:02:35.656Z,9.80
2023-02-19T04:05:13.826Z,9.79
2023-02-19T04:07:47.150Z,9.88
2023-02-19T04:10:16.240Z,10.00
2023-02-19T04:12:48.853Z,10.07
2023-02-19T04:15:21.881Z,10.15
2023-02-19T04:17:55.358Z,10.13
2023-02-19T04:20:29.652Z,10.20
2023-02-19T04:22:59.033Z,10.00
2023-02-19T04:25:30.587Z,10.10
2023-02-19T04:27:59.755Z,9.97
2023-02-19T04:30:28.353Z,9.98
2023-02-19T04:32:56.576Z,10.01
2023-02-19T04:35:26.209Z,10.37
2023-02-19T04:37:54.248Z,10.42
2023-02-19T04:40:22.404Z,10.48
2023-02-19T04:42:50.629Z,10.55
2023-02-19T04:45:19.023Z,10.67
2023-02-19T04:47:47.086Z,10.76
2023-02-19T04:50:15.344Z,10.80
2023-02-19T04:52:44.886Z,10.85
2023-02-19T04:55:13.077Z,10.86
2023-02-19T04:57:41.371Z,10.83
2023-02-19T05:00:11.407Z,10.85
2023-02-19T05:02:39.417Z,10.83
2023-02-19T05:05:07.677Z,10.81
2023-02-19T05:07:35.772Z,10.72
2023-02-19T05:10:05.497Z,10.65
2023-02-19T05:12:33.642Z,10.60
2023-02-19T05:15:01.707Z,10.58
2023-02-19T05:17:29.780Z,10.62
2023-02-19T05:19:57.886Z,10.67
2023-02-19T05:22:26.084Z,10.76
2023-02-19T05:24:54.160Z,10.88
2023-02-19T05:27:24.187Z,11.02
2023-02-19T05:29:52.723Z,11.14
2023-02-19T05:32:20.808Z,11.22
2023-02-19T05:34:49.221Z,11.28
2023-02-19T05:37:17.389Z,11.36
2023-02-19T05:39:45.483Z,11.48
2023-02-19T05:42:15.464Z,11.60
2023-02-19T05:44:44.978Z,11.71
2023-02-19T05:47:13.357Z,11.80
2023-02-19T05:49:41.867Z,11.86
2023-02-19T05:52:10.141Z,12.00
2023-02-19T05:54:38.226Z,12.13
2023-02-19T05:57:06.348Z,12.23
2023-02-19T05:59:34.748Z,12.39
2023-02-19T06:02:04.258Z,12.35
2023-02-19T06:04:32.543Z,12.38
2023-02-19T06:07:00.753Z,12.40
2023-02-19T06:09:28.852Z,12.53
2023-02-19T06:11:57.301Z,12.64
2023-02-19T06:14:25.662Z,12.69
2023-02-19T06:16:54.612Z,12.78
2023-02-19T06:19:24.454Z,12.86
2023-02-19T06:21:52.547Z,12.92
2023-02-19T06:24:20.582Z,12.93
2023-02-19T06:26:48.625Z,13.02
2023-02-19T06:29:18.436Z,13.07
2023-02-19T06:31:46.745Z,13.12
2023-02-19T06:34:15.028Z,13.24
2023-02-19T06:36:45.590Z,13.35
2023-02-19T06:39:13.652Z,13.40
2023-02-19T06:41:41.725Z,13.49
2023-02-19T06:44:09.804Z,13.54
2023-02-19T06:46:38.293Z,13.61
2023-02-19T06:49:06.621Z,13.62
2023-02-19T06:51:35.155Z,13.68
2023-02-19T06:54:04.796Z,13.74
2023-02-19T06:56:36.074Z,13.84
2023-02-19T06:59:08.054Z,13.91
2023-02-19T07:01:37.251Z,14.03
2023-02-19T07:04:06.295Z,14.07
2023-02-19T07:06:35.920Z,14.03
2023-02-19T07:09:06.819Z,14.15
2023-02-19T07:11:38.016Z,14.28
2023-02-19T07:14:09.188Z,14.32
2023-02-19T07:16:39.066Z,14.40
2023-02-19T07:19:07.322Z,14.41
2023-02-19T07:21:37.909Z,14.43
2023-02-19T07:24:08.067Z,14.54
2023-02-19T07:26:36.388Z,14.68
2023-02-19T07:29:05.092Z,14.84
2023-02-19T07:31:33.230Z,14.96
2023-02-19T07:34:01.453Z,15.07
2023-02-19T07:36:29.613Z,15.15
2023-02-19T07:38:58.611Z,15.20
2023-02-19T07:41:29.086Z,15.25
2023-02-19T07:43:57.278Z,15.30
2023-02-19T07:46:25.915Z,15.38
2023-02-19T07:48:54.006Z,15.43
2023-02-19T07:51:22.633Z,15.44
2023-02-19T07:53:51.618Z,15.50
2023-02-19T07:56:20.902Z,15.58
2023-02-19T07:58:50.672Z,15.67
2023-02-19T08:01:40.655Z,15.74
2023-02-19T08:04:08.484Z,15.75
2023-02-19T08:06:36.656Z,15.79
2023-02-19T08:09:05.424Z,15.75
2023-02-19T08:11:51.644Z,15.80
2023-02-19T08:14:21.327Z,15.73
2023-02-19T08:16:50.698Z,15.86
2023-02-19T08:19:19.708Z,15.87
2023-02-19T08:21:49.097Z,15.86
2023-02-19T08:24:17.227Z,15.81
2023-02-19T08:26:45.364Z,15.80
2023-02-19T08:29:13.973Z,15.88
2023-02-19T08:31:43.634Z,15.93
2023-02-19T08:34:12.253Z,15.97
2023-02-19T08:36:40.451Z,16.04
2023-02-19T08:39:09.225Z,16.13
2023-02-19T08:41:37.405Z,16.19
2023-02-19T08:44:05.772Z,16.24
2023-02-19T08:46:34.594Z,16.36
2023-02-19T08:49:04.289Z,16.38
2023-02-19T08:51:32.529Z,16.38
2023-02-19T08:54:04.388Z,16.46
2023-02-19T08:56:32.530Z,16.54
2023-02-19T08:59:01.859Z,16.62
2023-02-19T09:01:30.093Z,16.69
2023-02-19T09:03:59.536Z,16.76
2023-02-19T09:06:29.079Z,16.85
2023-02-19T09:08:57.289Z,16.92
2023-02-19T09:11:25.439Z,16.99
2023-02-19T09:13:53.693Z,17.08
2023-02-19T09:16:21.751Z,17.22
2023-02-19T09:18:49.815Z,17.26
2023-02-19T09:21:18.012Z,17.33
2023-02-19T09:23:48.428Z,17.31
2023-02-19T09:26:16.879Z,17.33
2023-02-19T09:28:45.366Z,17.47
2023-02-19T09:31:16.359Z,17.49
2023-02-19T09:33:45.221Z,17.55
2023-02-19T09:36:13.945Z,17.70
2023-02-19T09:38:42.133Z,17.83
2023-02-19T09:41:18.258Z,17.89
2023-02-19T09:43:47.351Z,18.00
2023-02-19T09:46:26.574Z,18.06
2023-02-19T09:48:57.264Z,18.07
2023-02-19T09:51:29.829Z,18.16
2023-02-19T09:54:05.531Z,18.21
2023-02-19T09:56:39.452Z,18.17
2023-02-19T09:59:11.822Z,18.32
2023-02-19T10:01:42.483Z,18.50
2023-02-19T10:04:12.042Z,18.54
2023-02-19T10:06:40.618Z,18.59
2023-02-19T10:09:22.257Z,18.60
2023-02-19T10:11:55.725Z,18.65
2023-02-19T10:14:31.497Z,18.60
2023-02-19T10:17:05.675Z,18.65
2023-02-19T10:19:34.834Z,18.77
2023-02-19T10:22:05.650Z,18.77
2023-02-19T10:24:37.500Z,18.75
2023-02-19T10:27:13.507Z,18.70
2023-02-19T10:29:41.772Z,18.68
2023-02-19T10:32:21.263Z,18.85
2023-02-19T10:35:09.383Z,18.89
2023-02-19T10:37:43.431Z,19.09
2023-02-19T10:40:17.984Z,19.23
2023-02-19T10:42:49.731Z,19.42
2023-02-19T10:45:21.619Z,19.59
2023-02-19T10:47:51.484Z,19.57
2023-02-19T10:50:27.303Z,19.55
2023-02-19T10:52:59.359Z,19.60
2023-02-19T10:55:31.313Z,19.85
2023-02-19T10:58:22.468Z,19.91
2023-02-19T11:01:11.986Z,20.02
2023-02-19T11:03:41.673Z,20.18
2023-02-19T11:06:13.233Z,20.09
2023-02-19T11:08:53.969Z,19.94
2023-02-19T11:11:31.757Z,19.95
2023-02-19T11:14:05.855Z,19.90
2023-02-19T11:16:48.906Z,19.83
2023-02-19T11:19:29.509Z,20.00
2023-02-19T11:21:58.739Z,20.01
2023-02-19T11:24:31.787Z,20.09
2023-02-19T11:27:00.397Z,20.17
2023-02-19T11:29:34.911Z,20.18
2023-02-19T11:32:25.458Z,20.26
2023-02-19T11:34:53.826Z,20.21
2023-02-19T11:37:22.711Z,20.10
2023-02-19T11:39:53.635Z,20.12
2023-02-19T11:42:48.503Z,20.27
2023-02-19T11:45:31.202Z,20.41
2023-02-19T11:48:15.266Z,20.44
2023-02-19T11:51:04.393Z,20.43
2023-02-19T11:53:37.352Z,20.47
2023-02-19T11:56:16.023Z,20.54
2023-02-19T11:59:02.962Z,20.53
2023-02-19T12:01:56.210Z,20.54
2023-02-19T12:04:57.848Z,20.56
2023-02-19T12:07:44.112Z,20.56
2023-02-19T12:10:19.114Z,20.52
2023-02-19T12:13:05.799Z,20.63
2023-02-19T12:15:49.386Z,20.62
2023-02-19T12:18:49.498Z,20.63
2023-02-19T12:21:28.584Z,20.71
2023-02-19T12:24:13.391Z,20.76
2023-02-19T12:26:48.233Z,20.72
2023-02-19T12:29:44.223Z,20.72
2023-02-19T12:32:36.217Z,20.74
2023-02-19T12:35:26.503Z,20.80
2023-02-19T12:38:04.563Z,20.63
2023-02-19T12:40:44.681Z,20.63
2023-02-19T12:43:18.988Z,20.65
2023-02-19T12:45:53.832Z,20.66
2023-02-19T12:48:29.645Z,20.60
2023-02-19T12:51:06.762Z,20.64
2023-02-19T12:53:43.605Z,20.59
2023-02-19T12:56:19.094Z,20.49
2023-02-19T12:58:51.720Z,20.40
2023-02-19T13:01:25.002Z,20.48
2023-02-19T13:04:09.742Z,20.47
2023-02-19T13:06:44.782Z,20.41
2023-02-19T13:09:16.941Z,20.29
2023-02-19T13:11:49.993Z,20.24
2023-02-19T13:14:26.582Z,20.34
2023-02-19T13:17:01.484Z,20.54
2023-02-19T13:19:32.063Z,20.40
2023-02-19T13:22:24.000Z,20.33
2023-02-19T13:24:52.902Z,20.49
2023-02-19T13:27:44.687Z,20.65
2023-02-19T13:30:34.088Z,20.56
2023-02-19T13:33:17.313Z,20.50
2023-02-19T13:36:07.955Z,20.50
2023-02-19T13:38:42.260Z,20.50
2023-02-19T13:41:20.528Z,20.50
2023-02-19T13:43:57.460Z,20.56
2023-02-19T13:46:27.434Z,20.64
2023-02-19T13:49:39.197Z,20.67
2023-02-19T13:52:37.041Z,20.56
2023-02-19T13:55:44.327Z,20.49
2023-02-19T13:58:41.002Z,20.39
2023-02-19T14:01:11.656Z,20.36
2023-02-19T14:03:55.650Z,20.27
2023-02-19T14:06:23.854Z,20.23
2023-02-19T14:08:57.372Z,20.21
2023-02-19T14:12:05.477Z,20.24
2023-02-19T14:14:38.322Z,20.20
2023-02-19T14:17:28.965Z,20.13
2023-02-19T14:19:59.741Z,20.13
2023-02-19T14:22:52.563Z,20.02
2023-02-19T14:25:29.640Z,19.93
2023-02-19T14:28:03.377Z,19.91
2023-02-19T14:30:36.410Z,19.83
2023-02-19T14:33:11.088Z,19.84
2023-02-19T14:35:42.138Z,19.81
2023-02-19T14:38:18.175Z,19.76
2023-02-19T14:40:48.711Z,19.70
2023-02-19T14:43:19.958Z,19.64
2023-02-19T14:45:53.481Z,19.62
2023-02-19T14:48:27.567Z,19.56
2023-02-19T14:51:01.580Z,19.51
2023-02-19T14:53:31.323Z,19.45
2023-02-19T14:56:03.857Z,19.40
2023-02-19T14:58:33.728Z,19.31
2023-02-19T15:01:03.299Z,19.34
2023-02-19T15:03:36.704Z,19.28
2023-02-19T15:06:08.375Z,19.23
2023-02-19T15:08:39.602Z,19.20
2023-02-19T15:11:13.890Z,19.14
2023-02-19T15:13:45.987Z,19.09
2023-02-19T15:16:24.694Z,19.06
2023-02-19T15:18:56.819Z,19.02
2023-02-19T15:21:26.640Z,18.99
2023-02-19T15:23:58.095Z,18.89
2023-02-19T15:26:33.300Z,18.80
2023-02-19T15:29:03.469Z,18.72
2023-02-19T15:31:33.175Z,18.72
2023-02-19T15:34:01.407Z,18.61
2023-02-19T15:36:32.984Z,18.54
2023-02-19T15:39:03.857Z,18.43
2023-02-19T15:41:35.800Z,18.35
2023-02-19T15:44:17.193Z,18.24
2023-02-19T15:46:49.461Z,18.15
2023-02-19T15:49:22.036Z,18.09
2023-02-19T15:51:56.671Z,18.00
2023-02-19T15:54:29.230Z,17.90
2023-02-19T15:57:00.243Z,17.80
2023-02-19T15:59:36.708Z,17.73
2023-02-19T16:02:06.633Z,17.65
2023-02-19T16:04:36.849Z,17.56
2023-02-19T16:07:05.406Z,17.49
2023-02-19T16:09:37.724Z,17.38
2023-02-19T16:12:21.688Z,17.28
2023-02-19T16:14:51.159Z,17.16
2023-02-19T16:17:28.085Z,17.09
2023-02-19T16:19:58.321Z,17.03
2023-02-19T16:22:30.017Z,16.99
2023-02-19T16:25:03.708Z,16.97
2023-02-19T16:27:34.787Z,16.93
2023-02-19T16:30:10.805Z,16.87
2023-02-19T16:32:40.376Z,16.80
2023-02-19T16:35:39.869Z,16.76
2023-02-19T16:38:17.280Z,16.71
2023-02-19T16:41:08.884Z,16.68
2023-02-19T16:43:41.858Z,16.63
2023-02-19T16:46:14.945Z,16.59
2023-02-19T16:48:44.638Z,16.56
2023-02-19T16:51:19.871Z,16.56
2023-02-19T16:53:48.046Z,16.48
2023-02-19T16:56:21.989Z,16.42
2023-02-19T16:58:50.243Z,16.36
2023-02-19T17:01:19.442Z,16.35
2023-02-19T17:03:51.823Z,16.33
2023-02-19T17:06:20.044Z,16.30
2023-02-19T17:08:48.572Z,16.28
2023-02-19T17:11:19.448Z,16.29
2023-02-19T17:13:50.228Z,16.41
2023-02-19T17:16:20.653Z,16.44
2023-02-19T17:18:52.209Z,16.25
2023-02-19T17:21:27.910Z,16.15
2023-02-19T17:23:58.100Z,16.01
2023-02-19T17:26:29.032Z,15.90
2023-02-19T17:28:57.700Z,15.82
2023-02-19T17:31:26.169Z,15.76
2023-02-19T17:33:56.426Z,15.71
2023-02-19T17:36:27.946Z,15.68
2023-02-19T17:38:56.302Z,15.63
2023-02-19T17:41:25.254Z,15.53
2023-02-19T17:43:55.061Z,15.47
2023-02-19T17:46:26.482Z,15.42
2023-02-19T17:48:58.745Z,15.37
2023-02-19T17:51:29.796Z,15.31
2023-02-19T17:53:58.268Z,15.28
2023-02-19T17:56:30.949Z,15.22
2023-02-19T17:59:00.941Z,15.17
2023-02-19T18:01:29.323Z,15.14
2023-02-19T18:04:01.872Z,15.09
2023-02-19T18:06:33.781Z,15.07
2023-02-19T18:09:02.149Z,15.06
2023-02-19T18:11:32.310Z,15.03
2023-02-19T18:14:03.303Z,15.05
2023-02-19T18:16:31.630Z,14.98
2023-02-19T18:19:03.956Z,15.10
2023-02-19T18:21:32.972Z,15.11
2023-02-19T18:24:03.010Z,15.09
2023-02-19T18:26:33.950Z,14.92
2023-02-19T18:29:04.014Z,14.91
2023-02-19T18:31:33.386Z,14.88
2023-02-19T18:34:14.007Z,14.90
2023-02-19T18:36:57.967Z,14.94
2023-02-19T18:39:28.697Z,14.92
2023-02-19T18:42:02.514Z,14.89
2023-02-19T18:44:32.229Z,14.96
2023-02-19T18:47:07.908Z,14.99
2023-02-19T18:49:38.669Z,14.96
2023-02-19T18:52:07.227Z,14.95
2023-02-19T18:54:40.009Z,14.99
2023-02-19T18:57:11.559Z,14.99
2023-02-19T18:59:44.298Z,15.01
2023-02-19T19:02:15.099Z,14.97
2023-02-19T19:04:54.846Z,14.96
2023-02-19T19:07:32.976Z,14.89
2023-02-19T19:10:09.915Z,14.75
2023-02-19T19:12:39.521Z,14.80
2023-02-19T19:15:08.754Z,14.82
2023-02-19T19:17:37.920Z,14.82
2023-02-19T19:20:12.332Z,14.80
2023-02-19T19:22:40.634Z,14.75
2023-02-19T19:25:10.503Z,14.72
2023-02-19T19:27:44.207Z,14.73
2023-02-19T19:30:16.820Z,14.73
2023-02-19T19:32:47.900Z,14.69
2023-02-19T19:35:22.261Z,14.66
2023-02-19T19:37:53.808Z,14.65
2023-02-19T19:40:28.029Z,14.55
2023-02-19T19:42:58.221Z,14.50
2023-02-19T19:45:30.634Z,14.41
2023-02-19T19:47:58.958Z,14.42
2023-02-19T19:50:34.873Z,14.44
2023-02-19T19:53:05.106Z,14.39
2023-02-19T19:55:36.011Z,14.23
2023-02-19T19:58:05.287Z,14.25
2023-02-19T20:00:34.607Z,14.32
2023-02-19T20:03:07.410Z,14.36
2023-02-19T20:05:40.371Z,14.39
2023-02-19T20:08:11.920Z,14.41
2023-02-19T20:10:45.412Z,14.53
2023-02-19T20:13:18.227Z,14.60
2023-02-19T20:15:46.738Z,14.61
2023-02-19T20:18:14.885Z,14.65
2023-02-19T20:20:45.137Z,14.65
2023-02-19T20:23:13.763Z,14.69
2023-02-19T20:25:44.474Z,14.70
2023-02-19T20:28:12.588Z,14.72
2023-02-19T20:30:40.943Z,14.80
2023-02-19T20:33:13.116Z,14.86
2023-02-19T20:35:42.581Z,14.89
2023-02-19T20:38:18.881Z,14.89
2023-02-19T20:40:48.882Z,14.89
2023-02-19T20:43:17.133Z,14.89
2023-02-19T20:45:47.877Z,14.84
2023-02-19T20:48:17.104Z,14.77
2023-02-19T20:50:45.764Z,14.82
2023-02-19T20:53:13.915Z,14.83
2023-02-19T20:55:43.738Z,14.84
2023-02-19T20:58:12.152Z,14.84
2023-02-19T21:00:40.883Z,14.82
2023-02-19T21:03:11.730Z,14.78
2023-02-19T21:05:40.774Z,14.75
2023-02-19T21:08:09.177Z,14.84
2023-02-19T21:10:38.279Z,14.88
2023-02-19T21:13:09.383Z,14.86
2023-02-19T21:15:37.540Z,14.84
2023-02-19T21:18:06.173Z,14.82
2023-02-19T21:20:34.974Z,14.83
2023-02-19T21:23:04.348Z,14.82
2023-02-19T21:25:33.828Z,14.81
2023-02-19T21:28:03.252Z,14.85
2023-02-19T21:30:32.769Z,14.86
2023-02-19T21:33:00.922Z,14.83
2023-02-19T21:35:29.345Z,14.87
2023-02-19T21:37:57.422Z,14.88
2023-02-19T21:40:25.899Z,14.87
2023-02-19T21:42:54.045Z,14.91
2023-02-19T21:45:22.271Z,14.86
2023-02-19T21:47:52.327Z,14.82
2023-02-19T21:50:21.689Z,14.82
2023-02-19T21:52:49.988Z,14.82
2023-02-19T21:55:18.096Z,14.79
2023-02-19T21:57:46.354Z,14.76
2023-02-19T22:00:15.626Z,14.72
2023-02-19T22:02:44.016Z,14.69
2023-02-19T22:05:14.005Z,14.65
2023-02-19T22:07:42.040Z,14.66
2023-02-19T22:10:11.604Z,14.63
2023-02-19T22:12:39.781Z,14.64
2023-02-19T22:15:08.250Z,14.59
2023-02-19T22:17:36.362Z,14.49
2023-02-19T22:20:04.811Z,14.49
2023-02-19T22:22:34.389Z,14.47
2023-02-19T22:25:02.516Z,14.39
2023-02-19T22:27:31.266Z,14.31
2023-02-19T22:29:59.293Z,14.31
2023-02-19T22:32:27.438Z,14.37
2023-02-19T22:34:55.602Z,14.39
2023-02-19T22:37:23.903Z,14.35
2023-02-19T22:39:53.488Z,14.27
2023-02-19T22:42:21.599Z,14.20
2023-02-19T22:44:49.724Z,14.28
2023-02-19T22:47:19.754Z,14.27
2023-02-19T22:49:48.080Z,14.22
2023-02-19T22:52:16.263Z,14.24
2023-02-19T22:54:44.321Z,14.29
2023-02-19T22:57:14.071Z,14.26
2023-02-19T22:59:42.208Z,14.23
2023-02-19T23:02:10.235Z,14.23
2023-02-19T23:04:38.876Z,14.16
2023-02-19T23:07:08.661Z,14.10
2023-02-19T23:09:37.055Z,14.09
2023-02-19T23:12:07.035Z,14.10
2023-02-19T23:14:37.815Z,14.12
2023-02-19T23:17:06.208Z,14.14
2023-02-19T23:19:35.442Z,14.06
2023-02-19T23:22:06.599Z,13.95
2023-02-19T23:24:34.812Z,13.94
2023-02-19T23:27:03.184Z,13.90
2023-02-19T23:29:32.266Z,13.85
2023-02-19T23:32:03.662Z,13.78
2023-02-19T23:34:32.294Z,13.77
2023-02-19T23:37:02.754Z,13.74
2023-02-19T23:39:31.125Z,13.78
2023-02-19T23:41:59.594Z,13.83
2023-02-19T23:44:27.974Z,13.87
2023-02-19T23:46:56.175Z,13.90
2023-02-19T23:49:25.668Z,13.97
2023-02-19T23:51:53.751Z,14.03
2023-02-19T23:54:21.973Z,14.09
2023-02-19T23:56:49.986Z,14.07
2023-02-19T23:59:18.079Z,14.15
